Time;durP1;ratioP1;P1;durP2;ratioP2;P2;SDS_P1;SDS_P2;PMS_P1;PMS_P2;Temp;Humidity;BMP_temperature;BMP_pressure;BME280_temperature;BME280_humidity;BME280_pressure;Samples;Min_cycle;Max_cycle;Signal;HPM_P1;HPM_P2
2024/01/05 00:57:29;;;;;;;;;;;;;;;;;;;;;
2024/01/05 03:03:47;;;;;;;16.95;9.27;;;;;;;;;;6289567;22;21096;-84
2024/01/05 03:06:40;;;;;;;16.75;9.57;;;;;;;;;;6273185;22;20217;-85
2024/01/05 03:13:50;;;;;;;18.40;9.80;;;;;;;;;;6237017;23;20222;-85
2024/01/05 03:24:23;;;;;;;;;;;;;;;;;;;;;
2024/01/05 03:27:41;;;;;;;15.55;9.45;;;;;;;;;;5992822;23;20020;-84
2024/01/05 03:47:51;;;;;;;14.95;9.65;;;;;;;;;;6295878;22;20084;-85
2024/01/05 03:50:26;;;;;;;15.27;9.15;;;;;;;;;;6237843;22;20084;-85
2024/01/05 04:06:13;;;;;;;16.40;9.02;;;;;;;;;;6292273;22;20027;-83
2024/01/05 04:09:17;;;;;;;16.02;8.50;;;;;;;;;;6215546;22;20019;-82
2024/01/05 04:41:49;;;;;;;;;;;;;;;;;;;;;
2024/01/05 04:50:38;;;;;;;12.68;8.60;;;;;;;;;;6312060;22;20120;-83
2024/01/05 05:31:00;;;;;;;12.00;6.78;;;;;;;;;;6267324;22;20081;-86
2024/01/05 05:34:24;;;;;;;13.75;7.30;;;;;;;;;;6219181;22;20034;-86
2024/01/05 05:37:01;;;;;;;12.88;6.93;;;;;;;;;;6208285;22;20012;-84
2024/01/05 05:56:55;;;;;;;;;;;;;;;;;;;;;
2024/01/05 06:03:01;;;;;;;13.18;7.55;;;;;;;;;;6106116;23;20026;-82
2024/01/05 06:06:11;;;;;;;13.23;6.90;;;;;;;;;;6136788;23;20076;-83
2024/01/05 06:09:59;;;;;;;;;;;;;;;;;;;;;
2024/01/05 06:16:30;;;;;;;14.70;7.70;;;;;;;;;;6096193;23;20053;-83
2024/01/05 06:19:31;;;;;;;;;;;;;;;;;;;;;
2024/01/05 06:22:40;;;;;;;12.52;7.22;;;;;;;;;;6227664;22;20020;-82
2024/01/05 06:29:38;;;;;;;13.85;7.25;;;;;;;;;;6238159;23;20024;-83
2024/01/05 06:32:40;;;;;;;16.70;8.48;;;;;;;;;;6178605;23;20016;-82
2024/01/05 06:39:11;;;;;;;;;;;;;;;;;;6228726;23;20024;-82
2024/01/05 06:45:42;;;;;;;16.63;9.45;;;;;;;;;;6089294;23;20479;-82
2024/01/05 07:46:27;;;;;;;25.52;12.30;;;;;;;;;;6294726;22;20057;-82
2024/01/05 07:49:07;;;;;;;26.33;12.38;;;;;;;;;;6246512;22;20023;-83
2024/01/05 07:59:04;;;;;;;21.50;11.82;;;;;;;;;;6210410;23;20450;-85
2024/01/05 08:02:04;;;;;;;25.83;12.52;;;;;;;;;;6155799;23;20393;-85
2024/01/05 08:04:48;;;;;;;23.58;12.65;;;;;;;;;;6109284;23;20071;-84
2024/01/05 08:30:47;;;;;;;27.05;13.68;;;;;;;;;;6232148;22;20030;-82
2024/01/05 08:33:25;;;;;;;24.77;13.07;;;;;;;;;;6271666;22;20089;-82
2024/01/05 08:57:13;;;;;;;25.25;11.73;;;;;;;;;;6332315;22;20022;-91
2024/01/05 08:59:39;;;;;;;29.67;13.55;;;;;;;;;;6261595;22;20080;-91
2024/01/05 09:02:06;;;;;;;23.15;13.23;;;;;;;;;;6285722;22;20367;-91
2024/01/05 09:04:32;;;;;;;27.42;12.27;;;;;;;;;;6260605;22;20018;-91
2024/01/05 09:07:01;;;;;;;24.90;11.80;;;;;;;;;;6257685;22;20011;-90
2024/01/05 09:09:27;;;;;;;22.08;11.82;;;;;;;;;;6256660;22;20066;-90
2024/01/05 09:11:53;;;;;;;24.20;12.23;;;;;;;;;;6278234;22;20011;-91
2024/01/05 09:14:19;;;;;;;26.17;11.80;;;;;;;;;;6274065;22;20244;-91
2024/01/05 09:16:45;;;;;;;26.17;11.85;;;;;;;;;;6253118;22;20039;-90
2024/01/05 09:19:11;;;;;;;25.05;11.68;;;;;;;;;;6274559;22;20780;-92
2024/01/05 09:21:37;;;;;;;28.55;11.50;;;;;;;;;;6225905;22;20098;-90
2024/01/05 09:24:04;;;;;;;23.40;11.60;;;;;;;;;;6223222;22;20011;-90
2024/01/05 09:26:30;;;;;;;28.17;12.40;;;;;;;;;;6227180;22;20439;-91
2024/01/05 09:28:56;;;;;;;21.80;11.82;;;;;;;;;;6252054;22;20011;-90
2024/01/05 09:31:22;;;;;;;22.52;11.90;;;;;;;;;;6221550;22;20073;-91
2024/01/05 09:33:49;;;;;;;25.73;11.52;;;;;;;;;;6223831;22;20019;-91
2024/01/05 09:36:16;;;;;;;23.52;10.93;;;;;;;;;;6249035;22;20020;-91
2024/01/05 09:38:43;;;;;;;25.13;11.65;;;;;;;;;;6275789;22;20011;-91
2024/01/05 09:41:13;;;;;;;28.05;12.63;;;;;;;;;;6218192;22;20329;-90
2024/01/05 09:43:40;;;;;;;22.55;11.65;;;;;;;;;;6247684;22;20023;-91
2024/01/05 09:46:07;;;;;;;23.52;11.57;;;;;;;;;;6223323;22;20018;-90
2024/01/05 09:48:33;;;;;;;25.95;11.52;;;;;;;;;;6222127;22;20022;-91
2024/01/05 09:50:59;;;;;;;24.40;12.18;;;;;;;;;;6244157;22;20094;-91
2024/01/05 09:53:25;;;;;;;20.77;10.85;;;;;;;;;;6241502;22;20023;-91
2024/01/05 09:55:51;;;;;;;21.38;11.27;;;;;;;;;;6244589;22;20025;-92
2024/01/05 09:58:17;;;;;;;20.58;10.07;;;;;;;;;;6215871;22;20443;-91
2024/01/05 10:00:46;;;;;;;21.98;10.48;;;;;;;;;;6244354;22;20015;-92
2024/01/05 10:03:14;;;;;;;22.67;11.00;;;;;;;;;;6221092;22;20033;-91
2024/01/05 10:05:40;;;;;;;20.30;12.03;;;;;;;;;;6245092;22;20040;-90
2024/01/05 10:08:07;;;;;;;25.08;11.23;;;;;;;;;;6240798;22;20064;-89
2024/01/05 10:10:48;;;;;;;20.67;10.40;;;;;;;;;;6270450;22;20072;-90
2024/01/05 10:13:17;;;;;;;22.30;10.68;;;;;;;;;;6268145;22;20474;-90
2024/01/05 10:15:56;;;;;;;21.08;10.75;;;;;;;;;;6217989;22;20015;-89
2024/01/05 10:18:22;;;;;;;;;;;;;;;;;;6243282;22;20019;-89
2024/01/05 10:20:48;;;;;;;22.27;9.93;;;;;;;;;;6267227;22;19961;-89
2024/01/05 10:23:14;;;;;;;17.05;9.27;;;;;;;;;;6239189;22;20039;-90
2024/01/05 10:25:40;;;;;;;27.80;11.65;;;;;;;;;;6215807;22;20013;-90
2024/01/05 10:28:23;;;;;;;23.02;11.52;;;;;;;;;;6294085;22;20050;-90
2024/01/05 10:30:49;;;;;;;24.13;10.70;;;;;;;;;;6241823;22;20640;-90
2024/01/05 10:33:18;;;;;;;20.20;10.60;;;;;;;;;;6265411;22;20026;-89
2024/01/05 10:35:44;;;;;;;18.60;10.68;;;;;;;;;;6243997;22;20466;-89
2024/01/05 10:38:11;;;;;;;18.20;10.05;;;;;;;;;;6237502;22;20030;-89
2024/01/05 10:40:37;;;;;;;20.70;10.27;;;;;;;;;;6265085;22;20072;-92
2024/01/05 10:43:10;;;;;;;17.45;9.65;;;;;;;;;;6210790;22;20313;-90
2024/01/05 10:45:37;;;;;;;22.20;9.82;;;;;;;;;;6244430;22;20015;-91
2024/01/05 10:48:10;;;;;;;23.80;11.15;;;;;;;;;;6265124;22;20425;-91
2024/01/05 10:50:41;;;;;;;22.27;10.85;;;;;;;;;;6266182;22;20638;-91
2024/01/05 10:53:09;;;;;;;23.65;11.90;;;;;;;;;;6235633;22;20580;-89
2024/01/05 10:55:35;;;;;;;18.83;9.57;;;;;;;;;;6216372;22;20026;-90
2024/01/05 10:58:02;;;;;;;21.40;9.77;;;;;;;;;;6238830;22;20344;-90
2024/01/05 11:00:28;;;;;;;17.58;9.77;;;;;;;;;;6292976;22;20387;-89
2024/01/05 11:02:59;;;;;;;23.15;10.75;;;;;;;;;;6213221;22;20020;-90
2024/01/05 11:05:25;;;;;;;19.27;9.70;;;;;;;;;;6240754;22;20436;-89
2024/01/05 11:07:51;;;;;;;24.83;10.57;;;;;;;;;;6239396;22;20021;-89
2024/01/05 11:10:32;;;;;;;20.00;9.50;;;;;;;;;;6266365;22;20019;-91
2024/01/05 11:12:58;;;;;;;20.05;9.40;;;;;;;;;;6274789;22;20015;-91
2024/01/05 11:15:30;;;;;;;18.30;8.70;;;;;;;;;;6272531;22;20055;-92
2024/01/05 11:18:11;;;;;;;16.38;7.47;;;;;;;;;;6274222;22;20050;-90
2024/01/05 11:20:39;;;;;;;19.17;7.85;;;;;;;;;;6246427;22;20015;-89
2024/01/05 11:23:05;;;;;;;14.80;7.63;;;;;;;;;;6216143;22;20448;-90
2024/01/05 11:25:31;;;;;;;14.68;7.50;;;;;;;;;;6268236;22;20442;-90
2024/01/05 11:28:01;;;;;;;17.92;7.43;;;;;;;;;;6267198;22;20396;-90
2024/01/05 11:30:37;;;;;;;13.93;7.05;;;;;;;;;;6270919;22;20025;-90
2024/01/05 11:33:06;;;;;;;17.85;7.43;;;;;;;;;;6241255;22;20043;-91
2024/01/05 11:35:44;;;;;;;13.13;7.10;;;;;;;;;;6223391;22;20023;-91
2024/01/05 11:38:24;;;;;;;15.30;7.50;;;;;;;;;;6222674;22;20072;-91
2024/01/05 11:40:50;;;;;;;14.85;7.30;;;;;;;;;;6265998;22;20406;-90
2024/01/05 11:43:33;;;;;;;10.00;6.68;;;;;;;;;;6242154;22;20019;-92
2024/01/05 11:45:59;;;;;;;14.63;7.20;;;;;;;;;;6271471;22;20026;-92
2024/01/05 11:48:34;;;;;;;11.27;5.72;;;;;;;;;;6247031;22;20015;-92
